sensor_id;sensor_type;location;lat;lon;timestamp;P1;durP1;ratioP1;P2;durP2;ratioP2
1376;SDS011;682;52.502;13.488;2022-08-27T00:00:26;17.90;;;16.10;;
1376;SDS011;682;52.502;13.488;2022-08-27T00:02:54;21.80;;;19.70;;
1376;SDS011;682;52.502;13.488;2022-08-27T00:05:22;17.93;;;16.37;;
1376;SDS011;682;52.502;13.488;2022-08-27T00:07:50;18.20;;;16.57;;
1376;SDS011;682;52.502;13.488;2022-08-27T00:10:18;18.70;;;16.97;;
1376;SDS011;682;52.502;13.488;2022-08-27T00:12:47;18.50;;;16.87;;
1376;SDS011;682;52.502;13.488;2022-08-27T00:15:14;18.63;;;16.93;;
1376;SDS011;682;52.502;13.488;2022-08-27T00:17:42;16.97;;;15.43;;
1376;SDS011;682;52.502;13.488;2022-08-27T00:20:11;17.67;;;16.00;;
1376;SDS011;682;52.502;13.488;2022-08-27T00:22:41;17.93;;;16.40;;
1376;SDS011;682;52.502;13.488;2022-08-27T00:25:08;18.23;;;16.63;;
1376;SDS011;682;52.502;13.488;2022-08-27T00:27:36;17.87;;;16.27;;
1376;SDS011;682;52.502;13.488;2022-08-27T00:30:10;17.13;;;15.83;;
1376;SDS011;682;52.502;13.488;2022-08-27T00:32:40;19.77;;;18.03;;
1376;SDS011;682;52.502;13.488;2022-08-27T00:35:07;19.83;;;18.10;;
1376;SDS011;682;52.502;13.488;2022-08-27T00:37:36;18.67;;;17.07;;
1376;SDS011;682;52.502;13.488;2022-08-27T00:40:07;17.77;;;16.13;;
1376;SDS011;682;52.502;13.488;2022-08-27T00:42:43;18.73;;;17.10;;
1376;SDS011;682;52.502;13.488;2022-08-27T00:45:15;17.90;;;16.30;;
1376;SDS011;682;52.502;13.488;2022-08-27T00:47:48;18.73;;;17.13;;
1376;SDS011;682;52.502;13.488;2022-08-27T00:50:22;19.23;;;17.63;;
1376;SDS011;682;52.502;13.488;2022-08-27T00:53:12;19.60;;;17.90;;
1376;SDS011;682;52.502;13.488;2022-08-27T00:55:48;17.73;;;16.20;;
1376;SDS011;682;52.502;13.488;2022-08-27T00:58:24;18.73;;;16.73;;
1376;SDS011;682;52.502;13.488;2022-08-27T01:00:56;21.60;;;17.77;;
1376;SDS011;682;52.502;13.488;2022-08-27T01:03:30;18.60;;;16.83;;
1376;SDS011;682;52.502;13.488;2022-08-27T01:05:58;20.90;;;18.93;;
1376;SDS011;682;52.502;13.488;2022-08-27T01:08:31;20.03;;;17.93;;
1376;SDS011;682;52.502;13.488;2022-08-27T01:11:06;18.60;;;16.60;;
1376;SDS011;682;52.502;13.488;2022-08-27T01:13:37;21.33;;;19.40;;
1376;SDS011;682;52.502;13.488;2022-08-27T01:16:09;18.30;;;16.57;;
1376;SDS011;682;52.502;13.488;2022-08-27T01:18:42;19.83;;;17.87;;
1376;SDS011;682;52.502;13.488;2022-08-27T01:21:11;20.27;;;18.37;;
1376;SDS011;682;52.502;13.488;2022-08-27T01:23:47;24.67;;;22.17;;
1376;SDS011;682;52.502;13.488;2022-08-27T01:26:21;20.10;;;18.13;;
1376;SDS011;682;52.502;13.488;2022-08-27T01:28:49;20.80;;;18.70;;
1376;SDS011;682;52.502;13.488;2022-08-27T01:31:18;27.83;;;21.57;;
1376;SDS011;682;52.502;13.488;2022-08-27T01:33:53;22.40;;;20.27;;
1376;SDS011;682;52.502;13.488;2022-08-27T01:36:22;23.07;;;20.87;;
1376;SDS011;682;52.502;13.488;2022-08-27T01:38:51;23.30;;;20.90;;
1376;SDS011;682;52.502;13.488;2022-08-27T01:41:18;21.90;;;19.90;;
1376;SDS011;682;52.502;13.488;2022-08-27T01:43:47;23.93;;;21.63;;
1376;SDS011;682;52.502;13.488;2022-08-27T01:46:14;23.80;;;21.40;;
1376;SDS011;682;52.502;13.488;2022-08-27T01:48:47;22.73;;;20.53;;
1376;SDS011;682;52.502;13.488;2022-08-27T01:51:14;21.90;;;19.90;;
1376;SDS011;682;52.502;13.488;2022-08-27T01:53:42;25.80;;;23.37;;
1376;SDS011;682;52.502;13.488;2022-08-27T01:56:10;26.37;;;23.57;;
1376;SDS011;682;52.502;13.488;2022-08-27T01:58:37;24.20;;;21.77;;
1376;SDS011;682;52.502;13.488;2022-08-27T02:01:07;25.30;;;22.63;;
1376;SDS011;682;52.502;13.488;2022-08-27T02:03:37;24.03;;;21.70;;
1376;SDS011;682;52.502;13.488;2022-08-27T02:06:07;25.03;;;22.53;;
1376;SDS011;682;52.502;13.488;2022-08-27T02:08:36;24.23;;;21.63;;
1376;SDS011;682;52.502;13.488;2022-08-27T02:11:03;23.70;;;21.47;;
1376;SDS011;682;52.502;13.488;2022-08-27T02:13:32;21.77;;;19.53;;
1376;SDS011;682;52.502;13.488;2022-08-27T02:15:59;21.50;;;19.40;;
1376;SDS011;682;52.502;13.488;2022-08-27T02:18:27;21.00;;;19.10;;
1376;SDS011;682;52.502;13.488;2022-08-27T02:20:54;22.37;;;20.37;;
1376;SDS011;682;52.502;13.488;2022-08-27T02:23:21;24.70;;;22.20;;
1376;SDS011;682;52.502;13.488;2022-08-27T02:25:48;23.67;;;21.10;;
1376;SDS011;682;52.502;13.488;2022-08-27T02:28:15;24.83;;;22.23;;
1376;SDS011;682;52.502;13.488;2022-08-27T02:30:41;27.50;;;22.07;;
1376;SDS011;682;52.502;13.488;2022-08-27T02:33:15;22.57;;;20.23;;
1376;SDS011;682;52.502;13.488;2022-08-27T02:35:46;27.17;;;21.30;;
1376;SDS011;682;52.502;13.488;2022-08-27T02:38:13;23.27;;;20.87;;
1376;SDS011;682;52.502;13.488;2022-08-27T02:40:40;22.40;;;20.30;;
1376;SDS011;682;52.502;13.488;2022-08-27T02:43:07;24.60;;;22.10;;
1376;SDS011;682;52.502;13.488;2022-08-27T02:45:36;23.23;;;20.90;;
1376;SDS011;682;52.502;13.488;2022-08-27T02:48:03;24.03;;;21.77;;
1376;SDS011;682;52.502;13.488;2022-08-27T02:50:31;24.17;;;21.67;;
1376;SDS011;682;52.502;13.488;2022-08-27T02:53:00;23.40;;;21.00;;
1376;SDS011;682;52.502;13.488;2022-08-27T02:55:29;22.83;;;20.50;;
1376;SDS011;682;52.502;13.488;2022-08-27T02:57:56;24.87;;;22.37;;
1376;SDS011;682;52.502;13.488;2022-08-27T03:00:23;24.53;;;22.00;;
1376;SDS011;682;52.502;13.488;2022-08-27T03:02:51;27.07;;;24.37;;
1376;SDS011;682;52.502;13.488;2022-08-27T03:05:19;25.87;;;23.10;;
1376;SDS011;682;52.502;13.488;2022-08-27T03:07:48;25.07;;;22.40;;
1376;SDS011;682;52.502;13.488;2022-08-27T03:10:17;25.80;;;23.03;;
1376;SDS011;682;52.502;13.488;2022-08-27T03:12:46;28.97;;;23.90;;
1376;SDS011;682;52.502;13.488;2022-08-27T03:15:14;30.03;;;23.97;;
1376;SDS011;682;52.502;13.488;2022-08-27T03:17:42;25.63;;;21.93;;
1376;SDS011;682;52.502;13.488;2022-08-27T03:20:28;29.20;;;23.33;;
1376;SDS011;682;52.502;13.488;2022-08-27T03:22:57;26.00;;;23.10;;
1376;SDS011;682;52.502;13.488;2022-08-27T03:25:26;27.03;;;24.33;;
1376;SDS011;682;52.502;13.488;2022-08-27T03:27:55;29.77;;;24.10;;
1376;SDS011;682;52.502;13.488;2022-08-27T03:30:22;27.17;;;24.37;;
1376;SDS011;682;52.502;13.488;2022-08-27T03:32:50;26.13;;;23.27;;
1376;SDS011;682;52.502;13.488;2022-08-27T03:35:17;27.27;;;24.33;;
1376;SDS011;682;52.502;13.488;2022-08-27T03:37:45;28.83;;;25.90;;
1376;SDS011;682;52.502;13.488;2022-08-27T03:40:13;27.00;;;24.30;;
1376;SDS011;682;52.502;13.488;2022-08-27T03:42:42;28.47;;;24.57;;
1376;SDS011;682;52.502;13.488;2022-08-27T03:45:09;32.23;;;26.10;;
1376;SDS011;682;52.502;13.488;2022-08-27T03:47:37;30.87;;;25.33;;
1376;SDS011;682;52.502;13.488;2022-08-27T03:50:05;29.60;;;26.40;;
1376;SDS011;682;52.502;13.488;2022-08-27T03:52:36;31.00;;;25.47;;
1376;SDS011;682;52.502;13.488;2022-08-27T03:55:03;27.80;;;24.70;;
1376;SDS011;682;52.502;13.488;2022-08-27T03:57:32;30.77;;;25.20;;
1376;SDS011;682;52.502;13.488;2022-08-27T04:00:00;30.17;;;24.87;;
1376;SDS011;682;52.502;13.488;2022-08-27T04:02:28;30.70;;;26.07;;
1376;SDS011;682;52.502;13.488;2022-08-27T04:04:55;30.43;;;25.50;;
1376;SDS011;682;52.502;13.488;2022-08-27T04:07:22;32.27;;;26.60;;
1376;SDS011;682;52.502;13.488;2022-08-27T04:09:49;30.13;;;27.00;;
1376;SDS011;682;52.502;13.488;2022-08-27T04:12:16;31.53;;;26.93;;
1376;SDS011;682;52.502;13.488;2022-08-27T04:14:43;31.07;;;27.57;;
1376;SDS011;682;52.502;13.488;2022-08-27T04:17:11;34.53;;;26.83;;
1376;SDS011;682;52.502;13.488;2022-08-27T04:19:38;29.60;;;25.90;;
1376;SDS011;682;52.502;13.488;2022-08-27T04:22:05;38.87;;;33.63;;
1376;SDS011;682;52.502;13.488;2022-08-27T04:24:33;39.03;;;31.40;;
1376;SDS011;682;52.502;13.488;2022-08-27T04:27:01;30.97;;;26.50;;
1376;SDS011;682;52.502;13.488;2022-08-27T04:29:29;32.53;;;26.90;;
1376;SDS011;682;52.502;13.488;2022-08-27T04:31:56;34.37;;;27.27;;
1376;SDS011;682;52.502;13.488;2022-08-27T04:34:25;30.73;;;25.53;;
1376;SDS011;682;52.502;13.488;2022-08-27T04:36:53;30.63;;;25.00;;
1376;SDS011;682;52.502;13.488;2022-08-27T04:39:20;36.30;;;26.03;;
1376;SDS011;682;52.502;13.488;2022-08-27T04:41:47;32.80;;;25.90;;
1376;SDS011;682;52.502;13.488;2022-08-27T04:44:14;34.57;;;28.20;;
1376;SDS011;682;52.502;13.488;2022-08-27T04:46:41;32.50;;;25.80;;
1376;SDS011;682;52.502;13.488;2022-08-27T04:49:09;32.80;;;26.00;;
1376;SDS011;682;52.502;13.488;2022-08-27T04:51:39;30.20;;;24.50;;
1376;SDS011;682;52.502;13.488;2022-08-27T04:54:07;30.33;;;26.97;;
1376;SDS011;682;52.502;13.488;2022-08-27T04:56:35;29.60;;;25.23;;
1376;SDS011;682;52.502;13.488;2022-08-27T04:59:02;31.40;;;25.53;;
1376;SDS011;682;52.502;13.488;2022-08-27T05:01:32;35.43;;;27.60;;
1376;SDS011;682;52.502;13.488;2022-08-27T05:04:00;27.73;;;24.33;;
1376;SDS011;682;52.502;13.488;2022-08-27T05:06:27;29.10;;;25.30;;
1376;SDS011;682;52.502;13.488;2022-08-27T05:08:55;33.03;;;27.03;;
1376;SDS011;682;52.502;13.488;2022-08-27T05:11:23;32.27;;;27.10;;
1376;SDS011;682;52.502;13.488;2022-08-27T05:13:52;32.53;;;26.20;;
1376;SDS011;682;52.502;13.488;2022-08-27T05:16:19;30.67;;;25.47;;
1376;SDS011;682;52.502;13.488;2022-08-27T05:18:48;30.10;;;24.17;;
1376;SDS011;682;52.502;13.488;2022-08-27T05:21:17;29.37;;;26.07;;
1376;SDS011;682;52.502;13.488;2022-08-27T05:23:45;26.37;;;23.27;;
1376;SDS011;682;52.502;13.488;2022-08-27T05:26:19;27.87;;;23.57;;
1376;SDS011;682;52.502;13.488;2022-08-27T05:28:46;27.83;;;23.87;;
1376;SDS011;682;52.502;13.488;2022-08-27T05:31:16;26.87;;;22.97;;
1376;SDS011;682;52.502;13.488;2022-08-27T05:33:43;26.20;;;23.43;;
1376;SDS011;682;52.502;13.488;2022-08-27T05:36:13;26.03;;;22.50;;
1376;SDS011;682;52.502;13.488;2022-08-27T05:38:42;25.83;;;22.27;;
1376;SDS011;682;52.502;13.488;2022-08-27T05:41:10;24.43;;;21.80;;
1376;SDS011;682;52.502;13.488;2022-08-27T05:43:41;25.73;;;22.47;;
1376;SDS011;682;52.502;13.488;2022-08-27T05:46:10;24.37;;;21.60;;
1376;SDS011;682;52.502;13.488;2022-08-27T05:48:40;28.80;;;24.07;;
1376;SDS011;682;52.502;13.488;2022-08-27T05:51:08;25.20;;;22.57;;
1376;SDS011;682;52.502;13.488;2022-08-27T05:53:37;27.47;;;22.73;;
1376;SDS011;682;52.502;13.488;2022-08-27T05:56:09;23.23;;;20.83;;
1376;SDS011;682;52.502;13.488;2022-08-27T05:58:37;28.63;;;21.70;;
1376;SDS011;682;52.502;13.488;2022-08-27T06:01:23;23.93;;;21.37;;
1376;SDS011;682;52.502;13.488;2022-08-27T06:03:50;25.37;;;21.23;;
1376;SDS011;682;52.502;13.488;2022-08-27T06:06:19;24.17;;;21.60;;
1376;SDS011;682;52.502;13.488;2022-08-27T06:08:47;24.60;;;21.40;;
1376;SDS011;682;52.502;13.488;2022-08-27T06:11:16;22.10;;;19.77;;
1376;SDS011;682;52.502;13.488;2022-08-27T06:13:43;22.47;;;19.80;;
1376;SDS011;682;52.502;13.488;2022-08-27T06:16:12;23.50;;;21.20;;
1376;SDS011;682;52.502;13.488;2022-08-27T06:18:42;21.87;;;19.57;;
1376;SDS011;682;52.502;13.488;2022-08-27T06:21:11;23.07;;;19.13;;
1376;SDS011;682;52.502;13.488;2022-08-27T06:23:40;22.47;;;20.17;;
1376;SDS011;682;52.502;13.488;2022-08-27T06:26:08;20.00;;;18.00;;
1376;SDS011;682;52.502;13.488;2022-08-27T06:28:37;21.37;;;17.30;;
1376;SDS011;682;52.502;13.488;2022-08-27T06:31:05;21.47;;;19.33;;
1376;SDS011;682;52.502;13.488;2022-08-27T06:33:35;21.43;;;19.30;;
1376;SDS011;682;52.502;13.488;2022-08-27T06:36:05;22.17;;;19.93;;
1376;SDS011;682;52.502;13.488;2022-08-27T06:38:33;22.40;;;18.90;;
1376;SDS011;682;52.502;13.488;2022-08-27T06:41:02;20.80;;;18.67;;
1376;SDS011;682;52.502;13.488;2022-08-27T06:43:29;22.63;;;20.37;;
1376;SDS011;682;52.502;13.488;2022-08-27T06:46:00;21.13;;;19.13;;
1376;SDS011;682;52.502;13.488;2022-08-27T06:48:30;21.87;;;19.77;;
1376;SDS011;682;52.502;13.488;2022-08-27T06:50:57;20.30;;;18.30;;
1376;SDS011;682;52.502;13.488;2022-08-27T06:53:26;20.57;;;18.43;;
1376;SDS011;682;52.502;13.488;2022-08-27T06:55:54;20.67;;;18.67;;
1376;SDS011;682;52.502;13.488;2022-08-27T06:58:21;19.77;;;17.77;;
1376;SDS011;682;52.502;13.488;2022-08-27T07:00:49;18.93;;;17.23;;
1376;SDS011;682;52.502;13.488;2022-08-27T07:03:16;20.13;;;18.33;;
1376;SDS011;682;52.502;13.488;2022-08-27T07:05:43;21.60;;;19.70;;
1376;SDS011;682;52.502;13.488;2022-08-27T07:08:10;18.20;;;16.50;;
1376;SDS011;682;52.502;13.488;2022-08-27T07:10:38;19.80;;;17.90;;
1376;SDS011;682;52.502;13.488;2022-08-27T07:13:06;17.03;;;15.53;;
1376;SDS011;682;52.502;13.488;2022-08-27T07:15:32;17.63;;;15.83;;
1376;SDS011;682;52.502;13.488;2022-08-27T07:18:02;17.33;;;15.70;;
1376;SDS011;682;52.502;13.488;2022-08-27T07:20:29;17.20;;;15.23;;
1376;SDS011;682;52.502;13.488;2022-08-27T07:22:57;20.47;;;16.33;;
1376;SDS011;682;52.502;13.488;2022-08-27T07:25:24;17.83;;;16.13;;
1376;SDS011;682;52.502;13.488;2022-08-27T07:27:52;17.03;;;15.43;;
1376;SDS011;682;52.502;13.488;2022-08-27T07:30:20;15.57;;;14.13;;
1376;SDS011;682;52.502;13.488;2022-08-27T07:32:47;14.87;;;13.50;;
1376;SDS011;682;52.502;13.488;2022-08-27T07:35:16;15.60;;;14.20;;
1376;SDS011;682;52.502;13.488;2022-08-27T07:37:44;14.77;;;13.40;;
1376;SDS011;682;52.502;13.488;2022-08-27T07:40:12;14.10;;;12.70;;
1376;SDS011;682;52.502;13.488;2022-08-27T07:42:42;14.63;;;13.30;;
1376;SDS011;682;52.502;13.488;2022-08-27T07:45:28;14.13;;;12.83;;
1376;SDS011;682;52.502;13.488;2022-08-27T07:47:55;13.90;;;12.63;;
1376;SDS011;682;52.502;13.488;2022-08-27T07:50:22;14.80;;;13.40;;
1376;SDS011;682;52.502;13.488;2022-08-27T07:52:49;14.47;;;13.13;;
1376;SDS011;682;52.502;13.488;2022-08-27T07:55:16;17.40;;;15.70;;
1376;SDS011;682;52.502;13.488;2022-08-27T07:57:44;15.10;;;13.70;;
1376;SDS011;682;52.502;13.488;2022-08-27T08:00:12;14.87;;;13.37;;
1376;SDS011;682;52.502;13.488;2022-08-27T08:02:40;16.17;;;14.67;;
1376;SDS011;682;52.502;13.488;2022-08-27T08:05:11;14.00;;;12.50;;
1376;SDS011;682;52.502;13.488;2022-08-27T08:07:39;15.30;;;13.80;;
1376;SDS011;682;52.502;13.488;2022-08-27T08:10:06;16.30;;;14.90;;
1376;SDS011;682;52.502;13.488;2022-08-27T08:12:35;14.80;;;13.50;;
1376;SDS011;682;52.502;13.488;2022-08-27T08:15:02;14.10;;;12.80;;
1376;SDS011;682;52.502;13.488;2022-08-27T08:17:31;13.80;;;12.60;;
1376;SDS011;682;52.502;13.488;2022-08-27T08:19:59;13.67;;;12.47;;
1376;SDS011;682;52.502;13.488;2022-08-27T08:22:27;14.20;;;12.90;;
1376;SDS011;682;52.502;13.488;2022-08-27T08:24:53;14.10;;;12.10;;
1376;SDS011;682;52.502;13.488;2022-08-27T08:27:21;11.60;;;10.60;;
1376;SDS011;682;52.502;13.488;2022-08-27T08:29:50;14.00;;;12.80;;
1376;SDS011;682;52.502;13.488;2022-08-27T08:32:17;12.83;;;11.57;;
1376;SDS011;682;52.502;13.488;2022-08-27T08:34:44;11.10;;;10.10;;
1376;SDS011;682;52.502;13.488;2022-08-27T08:37:13;13.00;;;11.80;;
1376;SDS011;682;52.502;13.488;2022-08-27T08:39:40;13.67;;;12.47;;
1376;SDS011;682;52.502;13.488;2022-08-27T08:42:08;12.50;;;11.50;;
1376;SDS011;682;52.502;13.488;2022-08-27T08:44:46;12.10;;;11.10;;
1376;SDS011;682;52.502;13.488;2022-08-27T08:47:18;10.57;;;9.67;;
1376;SDS011;682;52.502;13.488;2022-08-27T08:49:50;11.30;;;10.00;;
1376;SDS011;682;52.502;13.488;2022-08-27T08:52:25;9.90;;;9.00;;
1376;SDS011;682;52.502;13.488;2022-08-27T08:55:09;10.57;;;9.67;;
1376;SDS011;682;52.502;13.488;2022-08-27T08:57:44;10.20;;;9.30;;
1376;SDS011;682;52.502;13.488;2022-08-27T09:00:17;10.90;;;9.77;;
1376;SDS011;682;52.502;13.488;2022-08-27T09:02:46;10.00;;;9.10;;
1376;SDS011;682;52.502;13.488;2022-08-27T09:05:19;11.40;;;10.30;;
1376;SDS011;682;52.502;13.488;2022-08-27T09:07:52;11.40;;;10.40;;
1376;SDS011;682;52.502;13.488;2022-08-27T09:10:28;14.17;;;12.87;;
1376;SDS011;682;52.502;13.488;2022-08-27T09:13:01;12.17;;;11.00;;
1376;SDS011;682;52.502;13.488;2022-08-27T09:15:31;11.80;;;10.73;;
1376;SDS011;682;52.502;13.488;2022-08-27T09:18:04;12.77;;;11.63;;
1376;SDS011;682;52.502;13.488;2022-08-27T09:20:33;11.20;;;10.30;;
1376;SDS011;682;52.502;13.488;2022-08-27T09:23:04;10.73;;;9.90;;
1376;SDS011;682;52.502;13.488;2022-08-27T09:25:37;11.83;;;10.83;;
1376;SDS011;682;52.502;13.488;2022-08-27T09:28:06;14.17;;;12.63;;
1376;SDS011;682;52.502;13.488;2022-08-27T09:30:57;13.37;;;12.20;;
1376;SDS011;682;52.502;13.488;2022-08-27T09:33:25;12.73;;;11.40;;
1376;SDS011;682;52.502;13.488;2022-08-27T09:35:52;12.27;;;11.13;;
1376;SDS011;682;52.502;13.488;2022-08-27T09:38:23;13.43;;;12.40;;
1376;SDS011;682;52.502;13.488;2022-08-27T09:40:55;14.83;;;13.40;;
1376;SDS011;682;52.502;13.488;2022-08-27T09:43:25;13.60;;;12.30;;
1376;SDS011;682;52.502;13.488;2022-08-27T09:45:56;13.50;;;12.30;;
1376;SDS011;682;52.502;13.488;2022-08-27T09:48:25;11.07;;;10.07;;
1376;SDS011;682;52.502;13.488;2022-08-27T09:50:56;12.97;;;11.17;;
1376;SDS011;682;52.502;13.488;2022-08-27T09:53:27;11.83;;;10.73;;
1376;SDS011;682;52.502;13.488;2022-08-27T09:55:58;11.43;;;10.33;;
1376;SDS011;682;52.502;13.488;2022-08-27T09:58:28;9.83;;;8.77;;
1376;SDS011;682;52.502;13.488;2022-08-27T10:00:59;9.47;;;8.67;;
1376;SDS011;682;52.502;13.488;2022-08-27T10:03:30;10.10;;;9.20;;
1376;SDS011;682;52.502;13.488;2022-08-27T10:05:58;9.93;;;8.90;;
1376;SDS011;682;52.502;13.488;2022-08-27T10:08:27;9.57;;;8.67;;
1376;SDS011;682;52.502;13.488;2022-08-27T10:11:02;10.67;;;9.50;;
1376;SDS011;682;52.502;13.488;2022-08-27T10:13:32;13.17;;;9.27;;
1376;SDS011;682;52.502;13.488;2022-08-27T10:16:08;12.87;;;8.87;;
1376;SDS011;682;52.502;13.488;2022-08-27T10:18:51;9.60;;;8.70;;
1376;SDS011;682;52.502;13.488;2022-08-27T10:21:23;10.50;;;8.63;;
1376;SDS011;682;52.502;13.488;2022-08-27T10:24:01;12.30;;;10.27;;
1376;SDS011;682;52.502;13.488;2022-08-27T10:26:38;8.90;;;8.10;;
1376;SDS011;682;52.502;13.488;2022-08-27T10:29:13;9.87;;;8.97;;
1376;SDS011;682;52.502;13.488;2022-08-27T10:31:53;11.20;;;8.77;;
1376;SDS011;682;52.502;13.488;2022-08-27T10:34:30;9.30;;;8.30;;
1376;SDS011;682;52.502;13.488;2022-08-27T10:37:06;9.37;;;8.43;;
1376;SDS011;682;52.502;13.488;2022-08-27T10:39:45;9.60;;;8.80;;
1376;SDS011;682;52.502;13.488;2022-08-27T10:42:23;11.50;;;10.03;;
1376;SDS011;682;52.502;13.488;2022-08-27T10:44:57;10.40;;;9.40;;
1376;SDS011;682;52.502;13.488;2022-08-27T10:47:43;11.30;;;10.03;;
1376;SDS011;682;52.502;13.488;2022-08-27T10:50:23;9.90;;;9.10;;
1376;SDS011;682;52.502;13.488;2022-08-27T10:52:55;15.77;;;10.00;;
1376;SDS011;682;52.502;13.488;2022-08-27T10:55:28;10.47;;;8.93;;
1376;SDS011;682;52.502;13.488;2022-08-27T11:00:58;10.57;;;9.47;;
1376;SDS011;682;52.502;13.488;2022-08-27T11:03:33;10.53;;;9.07;;
1376;SDS011;682;52.502;13.488;2022-08-27T11:06:07;10.57;;;9.50;;
1376;SDS011;682;52.502;13.488;2022-08-27T11:08:40;21.80;;;19.90;;
1376;SDS011;682;52.502;13.488;2022-08-27T11:11:18;10.03;;;9.00;;
1376;SDS011;682;52.502;13.488;2022-08-27T11:14:23;9.70;;;8.67;;
1376;SDS011;682;52.502;13.488;2022-08-27T11:16:57;11.50;;;9.27;;
1376;SDS011;682;52.502;13.488;2022-08-27T11:19:34;9.57;;;8.80;;
1376;SDS011;682;52.502;13.488;2022-08-27T11:22:12;9.60;;;8.63;;
1376;SDS011;682;52.502;13.488;2022-08-27T11:24:45;9.07;;;8.30;;
1376;SDS011;682;52.502;13.488;2022-08-27T11:27:23;10.67;;;9.33;;
1376;SDS011;682;52.502;13.488;2022-08-27T11:29:58;9.60;;;8.70;;
1376;SDS011;682;52.502;13.488;2022-08-27T11:32:32;10.40;;;9.37;;
1376;SDS011;682;52.502;13.488;2022-08-27T11:35:11;8.77;;;8.00;;
1376;SDS011;682;52.502;13.488;2022-08-27T11:38:03;9.47;;;8.70;;
1376;SDS011;682;52.502;13.488;2022-08-27T11:41:03;8.73;;;8.03;;
1376;SDS011;682;52.502;13.488;2022-08-27T11:43:50;9.07;;;8.27;;
1376;SDS011;682;52.502;13.488;2022-08-27T11:46:20;9.97;;;8.97;;
1376;SDS011;682;52.502;13.488;2022-08-27T11:48:54;7.53;;;6.93;;
1376;SDS011;682;52.502;13.488;2022-08-27T11:51:28;7.27;;;6.77;;
1376;SDS011;682;52.502;13.488;2022-08-27T11:53:59;6.87;;;6.37;;
1376;SDS011;682;52.502;13.488;2022-08-27T11:56:38;8.40;;;6.10;;
1376;SDS011;682;52.502;13.488;2022-08-27T11:59:09;6.60;;;6.10;;
1376;SDS011;682;52.502;13.488;2022-08-27T12:01:44;7.80;;;6.80;;
1376;SDS011;682;52.502;13.488;2022-08-27T12:04:19;8.70;;;7.90;;
1376;SDS011;682;52.502;13.488;2022-08-27T12:07:03;8.00;;;7.40;;
1376;SDS011;682;52.502;13.488;2022-08-27T12:09:45;7.33;;;6.73;;
1376;SDS011;682;52.502;13.488;2022-08-27T12:12:21;7.03;;;6.40;;
1376;SDS011;682;52.502;13.488;2022-08-27T12:15:02;7.37;;;6.87;;
1376;SDS011;682;52.502;13.488;2022-08-27T12:17:37;6.70;;;6.20;;
1376;SDS011;682;52.502;13.488;2022-08-27T12:20:10;6.57;;;6.07;;
1376;SDS011;682;52.502;13.488;2022-08-27T12:22:59;7.57;;;6.73;;
1376;SDS011;682;52.502;13.488;2022-08-27T12:31:15;7.20;;;6.70;;
1376;SDS011;682;52.502;13.488;2022-08-27T12:34:11;7.70;;;7.10;;
1376;SDS011;682;52.502;13.488;2022-08-27T12:36:41;7.60;;;7.00;;
1376;SDS011;682;52.502;13.488;2022-08-27T12:39:11;7.97;;;7.37;;
1376;SDS011;682;52.502;13.488;2022-08-27T12:41:44;8.30;;;7.70;;
1376;SDS011;682;52.502;13.488;2022-08-27T12:44:13;7.83;;;7.13;;
1376;SDS011;682;52.502;13.488;2022-08-27T12:46:50;8.23;;;7.63;;
1376;SDS011;682;52.502;13.488;2022-08-27T12:49:20;8.60;;;7.70;;
1376;SDS011;682;52.502;13.488;2022-08-27T12:51:51;8.27;;;7.47;;
1376;SDS011;682;52.502;13.488;2022-08-27T12:54:23;9.27;;;8.33;;
1376;SDS011;682;52.502;13.488;2022-08-27T12:57:02;8.60;;;6.67;;
1376;SDS011;682;52.502;13.488;2022-08-27T12:59:45;8.90;;;8.20;;
1376;SDS011;682;52.502;13.488;2022-08-27T13:02:29;8.90;;;8.07;;
1376;SDS011;682;52.502;13.488;2022-08-27T13:05:22;9.30;;;7.80;;
1376;SDS011;682;52.502;13.488;2022-08-27T13:07:50;9.80;;;9.00;;
1376;SDS011;682;52.502;13.488;2022-08-27T13:10:23;8.83;;;8.00;;
1376;SDS011;682;52.502;13.488;2022-08-27T13:12:59;10.33;;;9.50;;
1376;SDS011;682;52.502;13.488;2022-08-27T13:15:29;9.00;;;8.30;;
1376;SDS011;682;52.502;13.488;2022-08-27T13:17:59;9.20;;;8.50;;
1376;SDS011;682;52.502;13.488;2022-08-27T13:20:28;10.70;;;8.10;;
1376;SDS011;682;52.502;13.488;2022-08-27T13:22:56;9.63;;;8.90;;
1376;SDS011;682;52.502;13.488;2022-08-27T13:25:24;9.33;;;8.43;;
1376;SDS011;682;52.502;13.488;2022-08-27T13:27:54;10.33;;;9.20;;
1376;SDS011;682;52.502;13.488;2022-08-27T13:30:32;10.00;;;9.17;;
1376;SDS011;682;52.502;13.488;2022-08-27T13:33:05;10.37;;;9.33;;
1376;SDS011;682;52.502;13.488;2022-08-27T13:35:39;9.87;;;8.97;;
1376;SDS011;682;52.502;13.488;2022-08-27T13:38:13;7.97;;;7.37;;
1376;SDS011;682;52.502;13.488;2022-08-27T13:40:53;8.87;;;8.17;;
1376;SDS011;682;52.502;13.488;2022-08-27T13:43:26;9.03;;;8.17;;
1376;SDS011;682;52.502;13.488;2022-08-27T13:46:00;8.10;;;7.30;;
1376;SDS011;682;52.502;13.488;2022-08-27T13:48:32;8.43;;;7.23;;
1376;SDS011;682;52.502;13.488;2022-08-27T13:51:01;7.20;;;6.60;;
1376;SDS011;682;52.502;13.488;2022-08-27T13:53:31;7.00;;;6.40;;
1376;SDS011;682;52.502;13.488;2022-08-27T13:56:22;7.53;;;6.93;;
1376;SDS011;682;52.502;13.488;2022-08-27T13:58:53;8.40;;;7.77;;
1376;SDS011;682;52.502;13.488;2022-08-27T14:01:24;8.40;;;7.80;;
1376;SDS011;682;52.502;13.488;2022-08-27T14:03:56;8.70;;;8.00;;
1376;SDS011;682;52.502;13.488;2022-08-27T14:06:27;10.00;;;7.00;;
1376;SDS011;682;52.502;13.488;2022-08-27T14:09:07;6.77;;;6.20;;
1376;SDS011;682;52.502;13.488;2022-08-27T14:11:41;7.50;;;6.80;;
1376;SDS011;682;52.502;13.488;2022-08-27T14:14:10;7.07;;;6.43;;
1376;SDS011;682;52.502;13.488;2022-08-27T14:16:39;7.30;;;6.60;;
1376;SDS011;682;52.502;13.488;2022-08-27T14:19:08;11.70;;;7.20;;
1376;SDS011;682;52.502;13.488;2022-08-27T14:21:52;7.30;;;6.60;;
1376;SDS011;682;52.502;13.488;2022-08-27T14:24:20;10.90;;;8.17;;
1376;SDS011;682;52.502;13.488;2022-08-27T14:27:01;7.20;;;6.60;;
1376;SDS011;682;52.502;13.488;2022-08-27T14:29:31;7.93;;;7.17;;
1376;SDS011;682;52.502;13.488;2022-08-27T14:32:00;8.40;;;7.60;;
1376;SDS011;682;52.502;13.488;2022-08-27T14:34:30;9.53;;;8.30;;
1376;SDS011;682;52.502;13.488;2022-08-27T14:37:01;8.93;;;7.40;;
1376;SDS011;682;52.502;13.488;2022-08-27T14:39:28;7.87;;;7.17;;
1376;SDS011;682;52.502;13.488;2022-08-27T14:41:55;8.20;;;7.30;;
1376;SDS011;682;52.502;13.488;2022-08-27T14:44:22;9.53;;;7.77;;
1376;SDS011;682;52.502;13.488;2022-08-27T14:46:49;8.53;;;7.63;;
1376;SDS011;682;52.502;13.488;2022-08-27T14:49:18;9.30;;;8.50;;
1376;SDS011;682;52.502;13.488;2022-08-27T14:52:03;9.40;;;7.77;;
1376;SDS011;682;52.502;13.488;2022-08-27T14:54:32;9.30;;;8.33;;
1376;SDS011;682;52.502;13.488;2022-08-27T14:56:59;10.03;;;8.27;;
1376;SDS011;682;52.502;13.488;2022-08-27T14:59:27;8.90;;;7.87;;
1376;SDS011;682;52.502;13.488;2022-08-27T15:01:57;9.20;;;8.30;;
1376;SDS011;682;52.502;13.488;2022-08-27T15:04:25;9.13;;;8.33;;
1376;SDS011;682;52.502;13.488;2022-08-27T15:06:54;17.37;;;15.87;;
1376;SDS011;682;52.502;13.488;2022-08-27T15:09:28;9.40;;;8.53;;
1376;SDS011;682;52.502;13.488;2022-08-27T15:11:55;9.30;;;8.23;;
1376;SDS011;682;52.502;13.488;2022-08-27T15:14:26;8.80;;;8.00;;
1376;SDS011;682;52.502;13.488;2022-08-27T15:16:55;11.30;;;9.37;;
1376;SDS011;682;52.502;13.488;2022-08-27T15:19:23;8.73;;;7.93;;
1376;SDS011;682;52.502;13.488;2022-08-27T15:21:51;11.20;;;9.77;;
1376;SDS011;682;52.502;13.488;2022-08-27T15:24:24;8.43;;;7.63;;
1376;SDS011;682;52.502;13.488;2022-08-27T15:26:58;10.57;;;9.00;;